Time;durP1;ratioP1;P1;durP2;ratioP2;P2;SDS_P1;SDS_P2;PMS_P1;PMS_P2;Temp;Humidity;BMP_temperature;BMP_pressure;BME280_temperature;BME280_humidity;BME280_pressure;Samples;Min_cycle;Max_cycle;Signal;HPM_P1;HPM_P2
2021/10/19 00:00:10;;;;;;;10.40;7.93;;;14.80;95.70;;;;;;5033809;28;20116;-89
2021/10/19 00:02:36;;;;;;;9.70;7.20;;;14.80;95.80;;;;;;5033925;28;20629;-90
2021/10/19 00:05:03;;;;;;;10.77;8.32;;;14.80;95.70;;;;;;5000848;28;20112;-90
2021/10/19 00:07:29;;;;;;;9.55;7.53;;;14.80;95.80;;;;;;5014500;28;20079;-89
2021/10/19 00:09:55;;;;;;;9.10;7.13;;;14.80;95.80;;;;;;5035182;28;20455;-89
2021/10/19 00:12:21;;;;;;;11.60;7.63;;;14.80;95.80;;;;;;5053695;28;20041;-89
2021/10/19 00:14:47;;;;;;;9.55;7.32;;;14.80;95.90;;;;;;5053280;28;20112;-89
2021/10/19 00:17:13;;;;;;;10.73;7.63;;;14.80;95.90;;;;;;5054772;28;20098;-90
2021/10/19 00:19:39;;;;;;;9.15;7.22;;;14.80;95.90;;;;;;5057628;28;20025;-90
2021/10/19 00:22:05;;;;;;;10.90;7.97;;;14.80;96.00;;;;;;5057478;28;20112;-89
2021/10/19 00:24:31;;;;;;;9.32;7.00;;;14.80;96.10;;;;;;5059454;28;20465;-89
2021/10/19 00:26:57;;;;;;;10.77;6.90;;;14.80;96.10;;;;;;5076928;28;20031;-88
2021/10/19 00:29:23;;;;;;;10.95;7.60;;;14.80;96.20;;;;;;5061197;28;20385;-91
2021/10/19 00:32:07;;;;;;;9.05;7.50;;;14.80;96.10;;;;;;5044739;28;20037;-90
2021/10/19 00:34:33;;;;;;;11.27;7.15;;;14.80;96.20;;;;;;5040696;28;20021;-90
2021/10/19 00:36:59;;;;;;;10.35;7.60;;;14.80;96.20;;;;;;5041434;28;20021;-90
2021/10/19 00:39:25;;;;;;;10.45;7.43;;;14.90;96.20;;;;;;5039620;28;20377;-90
2021/10/19 00:41:50;;;;;;;9.85;7.28;;;14.90;96.30;;;;;;5029708;28;20029;-90
2021/10/19 00:44:16;;;;;;;13.95;8.05;;;14.90;96.30;;;;;;5055286;28;20100;-90
2021/10/19 00:46:42;;;;;;;9.32;7.40;;;14.80;96.40;;;;;;5037047;28;20049;-89
2021/10/19 00:49:09;;;;;;;8.95;7.22;;;14.80;96.40;;;;;;5036585;28;20498;-90
2021/10/19 00:51:35;;;;;;;10.93;8.00;;;14.80;96.40;;;;;;5047425;28;20025;-89
2021/10/19 00:54:01;;;;;;;10.50;7.95;;;14.80;96.50;;;;;;5054924;28;20056;-90
2021/10/19 00:56:27;;;;;;;10.77;7.47;;;14.80;96.40;;;;;;5037386;28;20064;-89
2021/10/19 00:58:53;;;;;;;10.85;7.63;;;14.80;96.60;;;;;;5033676;28;20466;-89
2021/10/19 01:01:19;;;;;;;11.88;7.85;;;14.80;96.50;;;;;;5039685;28;20087;-90
2021/10/19 01:03:45;;;;;;;10.75;8.40;;;14.80;96.70;;;;;;5039942;28;20025;-90
2021/10/19 01:06:12;;;;;;;9.32;7.90;;;14.70;96.60;;;;;;5036451;28;20037;-90
2021/10/19 01:08:41;;;;;;;10.35;7.95;;;14.70;96.70;;;;;;5033577;28;20418;-90
2021/10/19 01:11:07;;;;;;;13.68;8.40;;;14.70;96.80;;;;;;5042338;28;20054;-90
2021/10/19 01:16:55;;;;;;;10.25;7.65;;;14.70;96.80;;;;;;5032848;28;20032;-90
2021/10/19 01:19:24;;;;;;;10.50;7.70;;;14.70;96.90;;;;;;5019215;28;20104;-92
2021/10/19 01:21:56;;;;;;;11.45;8.55;;;14.70;96.90;;;;;;5035974;28;20024;-92
2021/10/19 01:24:22;;;;;;;10.68;7.85;;;14.60;96.90;;;;;;5035478;28;20026;-92
2021/10/19 01:26:48;;;;;;;9.77;8.10;;;14.60;97.00;;;;;;5019554;28;20029;-92
2021/10/19 01:29:14;;;;;;;9.25;7.45;;;14.60;97.00;;;;;;5016135;28;20068;-91
2021/10/19 01:31:44;;;;;;;11.02;8.30;;;14.70;97.10;;;;;;5027914;28;20466;-91
2021/10/19 01:34:10;;;;;;;9.87;7.53;;;14.60;97.10;;;;;;5035306;28;20029;-91
2021/10/19 01:36:36;;;;;;;11.50;8.23;;;14.70;97.10;;;;;;5036449;28;20278;-92
2021/10/19 01:39:04;;;;;;;14.60;8.73;;;14.70;97.20;;;;;;5018804;28;20065;-91
2021/10/19 01:41:31;;;;;;;11.60;8.40;;;14.60;97.30;;;;;;5017232;28;20029;-92
2021/10/19 01:43:56;;;;;;;9.57;8.25;;;14.60;97.30;;;;;;5002552;28;20033;-93
2021/10/19 01:46:22;;;;;;;12.88;8.38;;;14.60;97.40;;;;;;5023575;28;20030;-91
2021/10/19 01:48:48;;;;;;;12.20;8.45;;;14.60;97.40;;;;;;5031730;28;20044;-92
2021/10/19 01:51:14;;;;;;;12.70;7.85;;;14.60;97.50;;;;;;5044367;28;20013;-90
2021/10/19 01:53:41;;;;;;;17.33;8.80;;;14.60;97.50;;;;;;5048380;28;20027;-91
2021/10/19 01:56:06;;;;;;;9.52;7.32;;;14.70;97.60;;;;;;5044413;28;20488;-92
2021/10/19 01:58:32;;;;;;;10.38;7.78;;;14.60;97.60;;;;;;5013777;28;20109;-93
2021/10/19 02:00:58;;;;;;;11.57;8.43;;;14.70;97.70;;;;;;5018735;28;20037;-92
2021/10/19 02:03:24;;;;;;;11.45;8.20;;;14.60;97.70;;;;;;5019073;28;20022;-92
2021/10/19 02:05:50;;;;;;;11.57;7.95;;;14.70;97.80;;;;;;5038569;28;20032;-91
2021/10/19 02:08:15;;;;;;;10.13;8.20;;;14.70;97.70;;;;;;5015373;28;20056;-92
2021/10/19 02:10:41;;;;;;;12.43;7.78;;;14.70;97.80;;;;;;5022128;28;20042;-92
2021/10/19 02:13:08;;;;;;;10.45;7.80;;;14.70;97.80;;;;;;5036724;28;20025;-92
2021/10/19 02:15:34;;;;;;;10.60;8.23;;;14.70;97.80;;;;;;5035905;28;20029;-92
2021/10/19 02:18:01;;;;;;;10.35;7.95;;;14.70;97.80;;;;;;5034949;28;20021;-91
2021/10/19 02:20:27;;;;;;;10.43;8.27;;;14.70;97.70;;;;;;5034979;28;20036;-89
2021/10/19 02:22:54;;;;;;;10.18;7.50;;;14.70;97.80;;;;;;5035562;28;20021;-91
2021/10/19 02:25:20;;;;;;;8.93;7.55;;;14.80;97.80;;;;;;5019985;28;20040;-90
2021/10/19 02:27:46;;;;;;;11.27;7.60;;;14.80;97.90;;;;;;5026645;28;20112;-90
2021/10/19 02:30:30;;;;;;;9.45;7.50;;;14.80;97.80;;;;;;5034441;28;20131;-89
2021/10/19 02:32:56;;;;;;;11.63;7.18;;;14.80;97.90;;;;;;5035594;28;20041;-92
2021/10/19 02:35:23;;;;;;;10.57;7.57;;;14.80;98.00;;;;;;5037078;28;20067;-92
2021/10/19 02:37:50;;;;;;;10.85;7.45;;;14.80;98.00;;;;;;5019329;28;20052;-92
2021/10/19 02:40:17;;;;;;;9.82;7.82;;;14.80;98.00;;;;;;5015288;28;20049;-92
2021/10/19 02:42:43;;;;;;;11.23;7.82;;;14.80;98.10;;;;;;5037094;28;20016;-91
2021/10/19 02:45:10;;;;;;;10.93;7.60;;;14.80;98.30;;;;;;5018657;28;20091;-90
2021/10/19 02:47:36;;;;;;;10.85;7.40;;;14.80;98.30;;;;;;5034674;28;20028;-91
2021/10/19 02:50:02;;;;;;;10.35;8.15;;;14.80;98.40;;;;;;5030415;28;20025;-89
2021/10/19 02:52:28;;;;;;;13.30;8.55;;;14.80;98.50;;;;;;5036132;28;20090;-90
2021/10/19 02:54:54;;;;;;;10.52;7.78;;;14.80;98.60;;;;;;5033925;28;20124;-91
2021/10/19 02:57:23;;;;;;;9.63;7.60;;;14.90;98.70;;;;;;5046554;28;20021;-90
2021/10/19 02:59:49;;;;;;;10.82;7.47;;;14.90;98.90;;;;;;5019081;28;20025;-90
2021/10/19 03:02:15;;;;;;;10.18;7.68;;;14.90;98.90;;;;;;5018144;28;20041;-89
2021/10/19 03:04:40;;;;;;;10.85;7.68;;;14.90;99.10;;;;;;5015222;28;20482;-90
2021/10/19 03:07:06;;;;;;;11.77;8.32;;;14.90;99.20;;;;;;5034947;28;20493;-93
2021/10/19 03:09:32;;;;;;;11.13;8.10;;;14.90;99.20;;;;;;5018099;28;20036;-91
2021/10/19 03:11:58;;;;;;;11.15;7.55;;;15.00;99.40;;;;;;5021558;28;20562;-91
2021/10/19 03:14:23;;;;;;;10.05;7.30;;;15.00;99.40;;;;;;5034908;28;20360;-89
2021/10/19 03:16:57;;;;;;;12.00;9.02;;;15.00;99.50;;;;;;5029293;28;20028;-91
2021/10/19 03:19:23;;;;;;;9.80;7.65;;;15.00;99.60;;;;;;5036694;28;20078;-91
2021/10/19 03:21:49;;;;;;;9.82;7.55;;;15.00;99.50;;;;;;5037036;28;20017;-91
2021/10/19 03:24:17;;;;;;;12.27;7.88;;;15.00;99.90;;;;;;5053900;28;20417;-92
2021/10/19 03:26:43;;;;;;;13.13;8.57;;;15.00;99.80;;;;;;5058574;28;20044;-92
2021/10/19 03:29:08;;;;;;;9.85;7.72;;;15.10;99.90;;;;;;5024214;28;20030;-91
2021/10/19 03:31:35;;;;;;;9.77;7.38;;;15.10;99.90;;;;;;5034962;28;20013;-92
2021/10/19 03:34:02;;;;;;;11.27;8.00;;;15.10;99.90;;;;;;5018029;28;20029;-92
2021/10/19 03:36:28;;;;;;;10.73;8.10;;;15.10;99.90;;;;;;5066637;28;20493;-91
2021/10/19 03:38:54;;;;;;;12.23;7.25;;;15.10;99.90;;;;;;5033825;28;20021;-93
2021/10/19 03:41:19;;;;;;;11.75;8.10;;;15.10;99.90;;;;;;5023145;28;20022;-90
2021/10/19 03:43:45;;;;;;;10.82;8.10;;;15.10;99.90;;;;;;5028819;28;20080;-91
2021/10/19 03:46:11;;;;;;;12.35;8.00;;;15.10;99.90;;;;;;5034707;28;20037;-92
2021/10/19 03:48:36;;;;;;;11.07;8.25;;;15.10;99.90;;;;;;5046842;28;20029;-91
2021/10/19 03:51:11;;;;;;;11.18;8.52;;;15.10;99.90;;;;;;5053309;28;20028;-92
2021/10/19 03:53:41;;;;;;;11.55;8.40;;;15.10;99.90;;;;;;5063268;28;20032;-92
2021/10/19 03:56:07;;;;;;;11.10;7.95;;;15.00;99.90;;;;;;5035030;28;20057;-92
2021/10/19 03:58:33;;;;;;;10.68;7.97;;;15.00;99.90;;;;;;5041263;28;20017;-92
2021/10/19 04:00:59;;;;;;;10.23;8.68;;;15.10;99.90;;;;;;5067357;28;20095;-91
2021/10/19 04:03:25;;;;;;;12.45;8.68;;;15.10;99.90;;;;;;5057107;28;20025;-91
2021/10/19 04:05:52;;;;;;;11.15;8.50;;;15.10;99.90;;;;;;5067676;28;20428;-88
2021/10/19 04:08:17;;;;;;;10.88;8.20;;;15.10;99.90;;;;;;5041472;28;20029;-89
2021/10/19 04:10:43;;;;;;;10.68;8.88;;;15.10;99.90;;;;;;5038319;28;20049;-89
2021/10/19 04:13:09;;;;;;;10.88;8.43;;;15.00;99.90;;;;;;5037895;28;20033;-89
2021/10/19 04:15:35;;;;;;;10.93;8.48;;;15.00;99.90;;;;;;5056983;28;20048;-89
2021/10/19 04:18:01;;;;;;;11.00;8.35;;;15.00;99.90;;;;;;5052085;28;20021;-89
2021/10/19 04:20:26;;;;;;;10.18;7.95;;;15.00;99.90;;;;;;5057266;28;20028;-89
2021/10/19 04:22:53;;;;;;;11.40;8.70;;;15.00;99.90;;;;;;5038042;28;20024;-91
2021/10/19 04:25:19;;;;;;;11.10;8.60;;;15.10;99.90;;;;;;5063286;23;20469;-92
2021/10/19 04:27:45;;;;;;;10.93;8.60;;;15.00;99.90;;;;;;5032213;28;20401;-90
2021/10/19 04:30:11;;;;;;;12.02;9.18;;;15.00;99.90;;;;;;5039996;28;20048;-91
2021/10/19 04:32:37;;;;;;;11.63;8.48;;;15.00;99.90;;;;;;5023912;28;20029;-89
2021/10/19 04:35:02;;;;;;;11.02;8.75;;;15.10;99.90;;;;;;5040385;28;20036;-90
2021/10/19 04:37:28;;;;;;;12.98;9.07;;;15.10;99.90;;;;;;5020378;28;20352;-89
2021/10/19 04:39:54;;;;;;;10.85;8.95;;;15.10;99.90;;;;;;5046665;28;20032;-90
2021/10/19 04:42:19;;;;;;;13.07;9.13;;;15.10;99.90;;;;;;5037417;28;20047;-91
2021/10/19 04:44:48;;;;;;;10.88;8.75;;;15.10;99.90;;;;;;5036882;28;20018;-90
2021/10/19 04:47:15;;;;;;;10.65;8.88;;;15.10;99.90;;;;;;5052606;28;20043;-90
2021/10/19 04:49:42;;;;;;;11.38;8.68;;;15.10;99.90;;;;;;5023901;28;20024;-90
2021/10/19 04:52:08;;;;;;;10.73;8.80;;;15.10;99.90;;;;;;5037017;28;20049;-88
2021/10/19 04:54:33;;;;;;;11.95;8.93;;;15.10;99.90;;;;;;5056010;28;20470;-90
2021/10/19 04:56:59;;;;;;;12.23;9.45;;;15.10;99.90;;;;;;5016502;28;20032;-92
2021/10/19 04:59:25;;;;;;;12.05;9.13;;;15.10;99.90;;;;;;5033971;28;20032;-90
2021/10/19 05:01:51;;;;;;;11.43;9.00;;;15.10;99.90;;;;;;5056616;28;20017;-88
2021/10/19 05:04:17;;;;;;;14.15;9.65;;;15.10;99.90;;;;;;5021829;28;20036;-89
2021/10/19 05:06:43;;;;;;;13.07;9.20;;;15.10;99.90;;;;;;5023016;28;20082;-89
2021/10/19 05:09:09;;;;;;;11.30;8.98;;;15.10;99.90;;;;;;5032908;28;20049;-89
2021/10/19 05:11:35;;;;;;;13.57;8.88;;;15.10;99.90;;;;;;5031657;28;20021;-90
2021/10/19 05:14:00;;;;;;;12.68;8.90;;;15.10;99.90;;;;;;5056198;28;20028;-90
2021/10/19 05:16:26;;;;;;;12.43;9.23;;;15.10;99.90;;;;;;5039389;28;20124;-89
2021/10/19 05:18:51;;;;;;;10.73;9.27;;;15.10;99.90;;;;;;5025197;28;20486;-89
2021/10/19 05:21:17;;;;;;;11.50;9.85;;;15.10;99.90;;;;;;5022856;28;20025;-89
2021/10/19 05:23:43;;;;;;;12.35;9.07;;;15.00;99.90;;;;;;5052586;28;20051;-90
2021/10/19 05:26:09;;;;;;;12.45;9.63;;;15.00;99.90;;;;;;5018482;28;20056;-92
2021/10/19 05:28:35;;;;;;;11.63;9.15;;;15.00;99.90;;;;;;5042945;28;20021;-91
2021/10/19 05:31:01;;;;;;;11.35;9.60;;;15.00;99.90;;;;;;5045372;28;20462;-92
2021/10/19 05:33:27;;;;;;;12.10;9.50;;;15.00;99.90;;;;;;5041912;28;20017;-93
2021/10/19 05:35:53;;;;;;;11.70;9.10;;;15.00;99.90;;;;;;5054311;28;20032;-93
2021/10/19 05:38:19;;;;;;;11.82;9.35;;;15.00;99.90;;;;;;5022640;28;20056;-92
2021/10/19 05:40:44;;;;;;;11.30;9.95;;;15.00;99.90;;;;;;5040029;28;20021;-93
2021/10/19 05:43:10;;;;;;;11.10;9.13;;;15.00;99.90;;;;;;5042315;28;20056;-91
2021/10/19 05:45:36;;;;;;;12.20;9.15;;;15.00;99.90;;;;;;5012897;28;20161;-94
2021/10/19 05:48:02;;;;;;;10.80;9.10;;;15.00;99.90;;;;;;5022603;28;20029;-94
2021/10/19 05:50:28;;;;;;;11.32;9.35;;;15.00;99.90;;;;;;5039379;28;20028;-95
2021/10/19 05:52:54;;;;;;;11.25;9.27;;;15.00;99.90;;;;;;5039114;28;20063;-94
2021/10/19 05:55:19;;;;;;;11.43;9.38;;;15.00;99.90;;;;;;5057065;28;20393;-94
2021/10/19 05:57:45;;;;;;;9.48;8.48;;;15.00;99.90;;;;;;5022323;28;20379;-94
2021/10/19 06:00:11;;;;;;;10.27;9.18;;;15.00;99.90;;;;;;5037747;28;20096;-94
2021/10/19 06:02:37;;;;;;;10.95;8.73;;;15.00;99.90;;;;;;5036104;28;20087;-95
2021/10/19 06:05:03;;;;;;;9.65;8.63;;;15.00;99.90;;;;;;5035716;28;20433;-94
2021/10/19 06:07:29;;;;;;;10.68;9.15;;;15.00;99.90;;;;;;5054680;28;20039;-93
2021/10/19 06:10:01;;;;;;;12.13;9.15;;;15.00;99.90;;;;;;5053478;28;20446;-93
2021/10/19 06:12:27;;;;;;;10.10;8.70;;;15.00;99.90;;;;;;5064206;28;20018;-88
2021/10/19 06:14:53;;;;;;;12.43;9.02;;;15.00;99.90;;;;;;5030068;28;20021;-88
2021/10/19 06:17:18;;;;;;;10.65;8.80;;;15.00;99.90;;;;;;5052072;28;20025;-88
2021/10/19 06:19:44;;;;;;;10.02;8.20;;;15.00;99.90;;;;;;5031358;28;20033;-89
2021/10/19 06:22:10;;;;;;;9.45;8.45;;;15.00;99.90;;;;;;5039746;28;20397;-88
2021/10/19 06:24:35;;;;;;;10.57;9.15;;;15.00;99.90;;;;;;5022365;28;20050;-89
2021/10/19 06:27:01;;;;;;;10.43;8.65;;;15.00;99.90;;;;;;5012349;28;20097;-89
2021/10/19 06:29:29;;;;;;;10.23;8.77;;;15.10;99.90;;;;;;5048914;28;20084;-90
2021/10/19 06:31:55;;;;;;;11.38;9.02;;;15.10;99.90;;;;;;5025959;28;20036;-89
2021/10/19 06:34:21;;;;;;;11.30;9.05;;;15.10;99.90;;;;;;5022922;28;20083;-88
2021/10/19 06:36:47;;;;;;;9.60;8.50;;;15.10;99.90;;;;;;5034316;28;20497;-88
2021/10/19 06:39:13;;;;;;;10.82;9.00;;;15.10;99.90;;;;;;5037146;28;20025;-89
2021/10/19 06:41:38;;;;;;;10.43;8.90;;;15.10;99.90;;;;;;5039283;28;20495;-94
2021/10/19 06:44:04;;;;;;;9.85;8.68;;;15.10;99.90;;;;;;5046579;28;20405;-93
2021/10/19 06:46:30;;;;;;;10.40;9.30;;;15.10;99.90;;;;;;5048846;28;20028;-92
2021/10/19 06:48:55;;;;;;;9.73;8.73;;;15.10;99.90;;;;;;5038112;28;20524;-94
2021/10/19 06:51:21;;;;;;;10.90;8.68;;;15.10;99.90;;;;;;5026959;28;20020;-93
2021/10/19 06:53:47;;;;;;;8.63;7.72;;;15.10;99.90;;;;;;5054240;28;20030;-93
2021/10/19 06:56:12;;;;;;;9.40;8.10;;;15.10;99.90;;;;;;5007130;28;20111;-92
2021/10/19 06:58:38;;;;;;;9.65;8.50;;;15.10;99.90;;;;;;5043921;28;20030;-94
2021/10/19 07:01:05;;;;;;;9.13;8.13;;;15.20;99.90;;;;;;5039764;28;20025;-93
2021/10/19 07:03:32;;;;;;;9.23;8.20;;;15.20;99.90;;;;;;5038920;28;20021;-93
2021/10/19 07:06:05;;;;;;;9.32;8.05;;;15.20;99.90;;;;;;5019033;28;20428;-93
2021/10/19 07:08:33;;;;;;;10.98;8.60;;;15.20;99.90;;;;;;5027295;28;20052;-93
2021/10/19 07:10:59;;;;;;;9.57;8.25;;;15.30;99.90;;;;;;5054175;28;20150;-92
2021/10/19 07:13:24;;;;;;;12.88;8.80;;;15.30;99.90;;;;;;5017573;28;20124;-93
2021/10/19 07:15:55;;;;;;;12.00;8.93;;;15.30;99.90;;;;;;5024462;28;20025;-92
2021/10/19 07:18:24;;;;;;;10.48;9.02;;;15.30;99.90;;;;;;5037796;28;20016;-92
2021/10/19 07:20:51;;;;;;;10.55;9.27;;;15.30;99.90;;;;;;5037835;28;20112;-90
2021/10/19 07:23:17;;;;;;;10.32;9.05;;;15.30;99.90;;;;;;5037914;28;20378;-89
2021/10/19 07:25:49;;;;;;;9.93;8.40;;;15.30;99.90;;;;;;5037326;28;20136;-91
2021/10/19 07:28:18;;;;;;;11.90;8.98;;;15.40;99.90;;;;;;5025019;28;20033;-91
2021/10/19 07:30:44;;;;;;;10.52;9.35;;;15.40;99.90;;;;;;5059051;28;20032;-92
2021/10/19 07:33:10;;;;;;;10.15;8.63;;;15.40;99.90;;;;;;5058245;28;20025;-91
2021/10/19 07:35:35;;;;;;;9.90;8.90;;;15.40;99.90;;;;;;5024663;28;20098;-90
2021/10/19 07:38:01;;;;;;;11.23;9.90;;;15.40;99.90;;;;;;5058344;28;20070;-91
2021/10/19 07:40:27;;;;;;;11.07;9.85;;;15.50;99.90;;;;;;5021640;28;20037;-90
2021/10/19 07:42:53;;;;;;;10.20;9.20;;;15.50;99.90;;;;;;5038108;28;20483;-90
2021/10/19 07:45:21;;;;;;;11.18;9.88;;;15.50;99.90;;;;;;5043937;28;20017;-91
2021/10/19 07:47:47;;;;;;;11.55;9.40;;;15.50;99.90;;;;;;5058180;28;20071;-90
2021/10/19 07:50:17;;;;;;;11.07;9.10;;;15.50;99.90;;;;;;5057602;28;20412;-90
2021/10/19 07:52:43;;;;;;;10.73;9.38;;;15.50;99.90;;;;;;5057673;28;20029;-90
2021/10/19 07:55:10;;;;;;;11.20;9.88;;;15.60;99.90;;;;;;5057591;28;20036;-90
2021/10/19 07:57:49;;;;;;;9.98;8.80;;;15.60;99.90;;;;;;5058537;28;20017;-91
2021/10/19 08:00:20;;;;;;;9.93;8.70;;;15.60;99.90;;;;;;5058066;28;20048;-91
2021/10/19 08:02:46;;;;;;;9.38;8.48;;;15.60;99.90;;;;;;5057870;28;20048;-92
2021/10/19 08:05:14;;;;;;;10.65;9.40;;;15.60;99.90;;;;;;5041648;28;20386;-91
2021/10/19 08:07:47;;;;;;;10.30;9.20;;;15.60;99.90;;;;;;5026748;28;20018;-91
2021/10/19 08:10:21;;;;;;;10.48;8.88;;;15.60;99.90;;;;;;5040529;28;20030;-91
2021/10/19 08:12:47;;;;;;;9.90;8.90;;;15.70;99.90;;;;;;5048757;28;20060;-90
2021/10/19 08:15:14;;;;;;;11.27;10.05;;;15.70;99.90;;;;;;5070728;28;20033;-91
2021/10/19 08:17:40;;;;;;;10.65;9.55;;;15.70;99.90;;;;;;5072548;28;20029;-90
2021/10/19 08:20:07;;;;;;;11.38;9.85;;;15.70;99.90;;;;;;5041406;28;20013;-90
2021/10/19 08:22:33;;;;;;;11.65;10.45;;;15.70;99.90;;;;;;5055786;28;20009;-91
2021/10/19 08:25:20;;;;;;;11.23;10.13;;;15.70;99.90;;;;;;5038522;28;20099;-92
2021/10/19 08:27:47;;;;;;;12.27;11.02;;;15.80;99.90;;;;;;5054286;28;20025;-92
2021/10/19 08:30:17;;;;;;;12.35;11.05;;;15.80;99.90;;;;;;5046357;28;20005;-93
2021/10/19 08:32:43;;;;;;;11.93;10.65;;;15.80;99.90;;;;;;5071734;28;20026;-88
2021/10/19 08:35:09;;;;;;;13.07;11.23;;;15.80;99.90;;;;;;5040570;28;20116;-92
2021/10/19 08:37:36;;;;;;;16.30;11.85;;;15.80;99.90;;;;;;5046154;28;20033;-92
2021/10/19 08:40:03;;;;;;;13.32;11.20;;;15.90;99.90;;;;;;5060172;28;20025;-92
2021/10/19 08:42:30;;;;;;;13.50;11.65;;;15.90;99.90;;;;;;5045309;28;20029;-92
2021/10/19 08:44:56;;;;;;;14.35;10.73;;;15.90;99.90;;;;;;5040904;28;20032;-93
2021/10/19 08:47:22;;;;;;;12.30;10.80;;;16.00;99.90;;;;;;5024255;28;20029;-92
2021/10/19 08:49:48;;;;;;;12.00;10.77;;;16.00;99.90;;;;;;5056544;28;20020;-92
2021/10/19 08:52:14;;;;;;;11.95;10.75;;;16.00;99.90;;;;;;5036625;28;20030;-91
2021/10/19 08:54:41;;;;;;;11.80;10.60;;;16.00;99.90;;;;;;5032428;28;20034;-91
2021/10/19 08:57:14;;;;;;;11.82;10.60;;;16.10;99.90;;;;;;5032074;28;20487;-93
2021/10/19 08:59:45;;;;;;;12.13;10.85;;;16.10;99.90;;;;;;5039554;28;20327;-93
2021/10/19 09:02:12;;;;;;;11.20;10.10;;;16.10;99.90;;;;;;5056535;28;20025;-93
2021/10/19 09:04:38;;;;;;;12.73;10.60;;;16.20;99.90;;;;;;5056442;28;20033;-92
2021/10/19 09:07:04;;;;;;;11.57;9.70;;;16.20;99.90;;;;;;5036896;28;20114;-92
2021/10/19 09:09:30;;;;;;;10.68;9.60;;;16.30;99.90;;;;;;5051704;28;20041;-92
2021/10/19 09:11:57;;;;;;;10.85;9.75;;;16.30;99.90;;;;;;5049742;28;20034;-91
2021/10/19 09:14:44;;;;;;;12.45;9.98;;;16.30;99.90;;;;;;5049722;28;20031;-91
2021/10/19 09:17:10;;;;;;;9.68;8.38;;;16.30;99.90;;;;;;5051292;28;20096;-92
2021/10/19 09:19:37;;;;;;;9.23;8.32;;;16.30;99.90;;;;;;5039171;28;20028;-91
2021/10/19 09:22:08;;;;;;;10.23;9.23;;;16.40;99.90;;;;;;5019001;28;20053;-91
2021/10/19 09:24:39;;;;;;;9.45;8.55;;;16.40;99.90;;;;;;5056309;28;20020;-92
2021/10/19 09:27:10;;;;;;;9.75;8.60;;;16.40;99.90;;;;;;5056430;28;20021;-93
2021/10/19 09:29:42;;;;;;;9.98;8.45;;;16.40;99.90;;;;;;5061828;28;20021;-91
2021/10/19 09:32:08;;;;;;;9.95;7.97;;;16.40;99.90;;;;;;5039640;28;20029;-90
2021/10/19 09:34:37;;;;;;;9.32;8.35;;;16.50;99.90;;;;;;5036236;28;20034;-91
2021/10/19 09:37:07;;;;;;;9.05;7.75;;;16.50;99.90;;;;;;5046417;28;20017;-92
2021/10/19 09:39:42;;;;;;;8.55;7.70;;;16.50;99.90;;;;;;5056700;28;20160;-92
2021/10/19 09:42:18;;;;;;;7.97;7.18;;;16.50;99.90;;;;;;5057390;28;20025;-93
2021/10/19 09:44:58;;;;;;;8.38;7.53;;;16.60;99.90;;;;;;5046010;28;20083;-93
2021/10/19 09:47:25;;;;;;;8.25;7.45;;;16.60;99.90;;;;;;5068698;28;20119;-92
2021/10/19 09:49:53;;;;;;;7.63;6.80;;;16.60;99.90;;;;;;5056607;28;20124;-92
2021/10/19 09:52:19;;;;;;;8.02;6.97;;;16.60;99.90;;;;;;5048267;28;20069;-91
2021/10/19 09:54:50;;;;;;;7.00;6.25;;;16.70;99.90;;;;;;5039617;28;20084;-94
2021/10/19 09:57:17;;;;;;;7.88;6.70;;;16.70;99.90;;;;;;5053002;28;20119;-93
2021/10/19 09:59:45;;;;;;;6.90;6.20;;;16.60;99.90;;;;;;5037916;28;20017;-91
2021/10/19 10:02:15;;;;;;;8.57;6.15;;;16.70;99.90;;;;;;5007053;28;20033;-93
2021/10/19 10:04:47;;;;;;;7.32;6.30;;;16.70;99.90;;;;;;5038755;28;20120;-92
2021/10/19 10:07:14;;;;;;;5.72;5.20;;;16.70;99.90;;;;;;5039313;28;20036;-92
2021/10/19 10:09:42;;;;;;;5.88;5.28;;;16.70;99.90;;;;;;5023493;28;20039;-95
2021/10/19 10:12:08;;;;;;;5.88;5.20;;;16.70;99.90;;;;;;5039059;28;20047;-90
2021/10/19 10:14:45;;;;;;;5.95;5.25;;;16.80;99.90;;;;;;5026448;28;20029;-92
2021/10/19 10:17:12;;;;;;;5.25;4.22;;;16.80;99.90;;;;;;5039526;28;20025;-91
2021/10/19 10:19:38;;;;;;;5.22;4.45;;;16.80;99.90;;;;;;5022480;28;20029;-92
2021/10/19 10:22:18;;;;;;;5.38;4.57;;;16.80;99.90;;;;;;5039442;28;20428;-91
2021/10/19 10:24:44;;;;;;;5.22;4.72;;;16.90;99.90;;;;;;5050580;28;20044;-91
2021/10/19 10:27:16;;;;;;;6.00;5.20;;;16.90;99.90;;;;;;5025682;28;20548;-90
2021/10/19 10:29:49;;;;;;;7.60;5.50;;;16.90;99.90;;;;;;5060341;28;20116;-90
2021/10/19 10:32:31;;;;;;;7.32;5.25;;;16.90;99.90;;;;;;5059955;28;20029;-91
2021/10/19 10:35:06;;;;;;;7.18;5.75;;;16.90;99.90;;;;;;5043251;28;20040;-90
2021/10/19 10:37:50;;;;;;;8.20;6.03;;;16.90;99.90;;;;;;5057940;28;20120;-91
2021/10/19 10:40:42;;;;;;;8.23;6.03;;;17.00;99.90;;;;;;5051581;28;20024;-93
2021/10/19 10:43:24;;;;;;;8.50;6.55;;;17.00;99.90;;;;;;5034809;28;20032;-92
2021/10/19 10:46:11;;;;;;;8.15;6.00;;;17.00;99.90;;;;;;5043181;28;20023;-91
2021/10/19 10:48:39;;;;;;;7.60;6.20;;;17.00;99.90;;;;;;5053880;28;20104;-91
2021/10/19 10:51:06;;;;;;;9.05;7.45;;;17.10;99.90;;;;;;5054226;28;20029;-94
2021/10/19 10:53:41;;;;;;;9.55;7.07;;;17.10;99.90;;;;;;5054447;28;20110;-89
2021/10/19 10:56:09;;;;;;;10.45;7.45;;;17.10;99.90;;;;;;5055665;28;20025;-90
2021/10/19 10:58:37;;;;;;;13.13;7.03;;;17.10;99.90;;;;;;5055256;28;20021;-90
2021/10/19 11:01:16;;;;;;;11.40;7.55;;;17.20;99.90;;;;;;5058701;28;20085;-90
2021/10/19 11:03:43;;;;;;;10.05;7.95;;;17.20;99.90;;;;;;5047440;28;20029;-89
2021/10/19 11:06:16;;;;;;;8.48;7.10;;;17.20;99.90;;;;;;5048902;28;20033;-90
2021/10/19 11:08:42;;;;;;;9.93;7.78;;;17.30;99.90;;;;;;5070664;28;20021;-90
2021/10/19 11:11:19;;;;;;;10.52;8.57;;;17.30;99.90;;;;;;5034818;28;20029;-92
2021/10/19 11:14:09;;;;;;;9.30;8.00;;;17.30;99.90;;;;;;5057104;28;20087;-92
2021/10/19 11:16:39;;;;;;;10.60;8.60;;;17.30;99.90;;;;;;5054336;28;20033;-94
2021/10/19 11:19:24;;;;;;;10.63;8.73;;;17.30;99.90;;;;;;5038050;28;20109;-94
2021/10/19 11:21:56;;;;;;;10.27;8.48;;;17.40;99.90;;;;;;5037670;28;20029;-93
2021/10/19 11:24:24;;;;;;;12.35;10.13;;;17.40;99.90;;;;;;5037482;28;20044;-92
2021/10/19 11:26:51;;;;;;;11.40;9.82;;;17.50;99.90;;;;;;5037911;28;20049;-92
2021/10/19 11:29:18;;;;;;;12.48;9.18;;;17.50;99.90;;;;;;5020182;28;20554;-92
2021/10/19 11:31:44;;;;;;;11.30;9.45;;;17.50;99.90;;;;;;5038334;28;20022;-91
2021/10/19 11:34:10;;;;;;;11.90;10.02;;;17.60;99.90;;;;;;5037586;28;20481;-92
2021/10/19 11:36:36;;;;;;;12.20;10.23;;;17.60;99.90;;;;;;5034276;28;20129;-93
2021/10/19 11:39:12;;;;;;;12.73;10.57;;;17.60;99.90;;;;;;5034581;28;20030;-93
2021/10/19 11:41:39;;;;;;;13.00;10.35;;;17.60;99.90;;;;;;5034476;28;20026;-94
2021/10/19 11:44:06;;;;;;;12.68;10.63;;;17.60;99.90;;;;;;5045569;28;20029;-93
2021/10/19 11:46:35;;;;;;;13.27;10.85;;;17.70;99.90;;;;;;5037288;28;20025;-93
2021/10/19 11:49:18;;;;;;;15.48;10.40;;;17.70;99.90;;;;;;5053670;28;20025;-93
2021/10/19 11:51:46;;;;;;;13.80;10.85;;;17.70;99.90;;;;;;5037439;28;20371;-94
2021/10/19 11:54:14;;;;;;;14.88;11.15;;;17.70;99.90;;;;;;5054161;28;20021;-94
2021/10/19 11:56:40;;;;;;;13.95;10.57;;;17.70;99.90;;;;;;5037390;28;20040;-93
2021/10/19 11:59:08;;;;;;;13.63;10.88;;;17.70;99.90;;;;;;5053683;28;20104;-94
2021/10/19 12:01:39;;;;;;;15.65;12.32;;;17.70;99.90;;;;;;5054192;28;20013;-94
2021/10/19 12:04:06;;;;;;;;;;;17.80;99.90;;;;;;5054380;28;20040;-95
2021/10/19 12:06:34;;;;;;;15.25;11.80;;;17.80;99.90;;;;;;5037166;28;20353;-94
2021/10/19 12:09:22;;;;;;;16.42;11.80;;;17.80;99.90;;;;;;5037098;28;20025;-94
2021/10/19 12:11:58;;;;;;;15.98;12.85;;;17.80;99.90;;;;;;5037011;28;20055;-94
2021/10/19 12:14:28;;;;;;;15.45;11.98;;;17.80;99.90;;;;;;5041651;28;20032;-92
2021/10/19 12:16:55;;;;;;;15.07;11.98;;;17.80;99.90;;;;;;5051415;28;20017;-92
2021/10/19 12:19:22;;;;;;;14.35;11.55;;;17.80;99.90;;;;;;5027204;28;20025;-92
2021/10/19 12:21:52;;;;;;;15.50;11.73;;;17.80;99.90;;;;;;5040716;28;20111;-93
2021/10/19 12:24:17;;;;;;;13.65;10.88;;;17.90;99.90;;;;;;5043006;28;20052;-90
2021/10/19 12:26:43;;;;;;;13.75;10.95;;;17.90;99.90;;;;;;5032062;28;20046;-90
2021/10/19 12:29:11;;;;;;;13.68;11.05;;;17.90;99.90;;;;;;5058662;28;20075;-89
2021/10/19 12:31:37;;;;;;;12.50;10.05;;;17.90;99.90;;;;;;5056682;28;20032;-89
2021/10/19 12:34:06;;;;;;;14.55;11.38;;;17.90;99.90;;;;;;5024304;28;20028;-90
2021/10/19 12:36:36;;;;;;;14.80;10.63;;;17.90;99.90;;;;;;5057628;28;20024;-89
2021/10/19 12:39:07;;;;;;;12.52;9.45;;;17.90;99.90;;;;;;5059725;28;20055;-90
2021/10/19 12:41:34;;;;;;;13.07;10.25;;;17.90;99.90;;;;;;5050198;28;20028;-91
2021/10/19 12:44:02;;;;;;;12.18;10.13;;;17.90;99.90;;;;;;5049363;28;20031;-92